sensor_id;sensor_type;location;lat;lon;timestamp;temperature;humidity
7972;DHT22;4031;49.758;6.120;2023-06-14T00:00:21;11.90;99.90
7972;DHT22;4031;49.758;6.120;2023-06-14T00:02:47;11.80;99.90
7972;DHT22;4031;49.758;6.120;2023-06-14T00:05:13;11.90;99.90
7972;DHT22;4031;49.758;6.120;2023-06-14T00:07:41;11.80;99.90
7972;DHT22;4031;49.758;6.120;2023-06-14T00:10:11;11.80;99.90
7972;DHT22;4031;49.758;6.120;2023-06-14T00:12:38;11.80;99.90
7972;DHT22;4031;49.758;6.120;2023-06-14T00:15:04;11.70;99.90
7972;DHT22;4031;49.758;6.120;2023-06-14T00:17:31;11.70;99.90
7972;DHT22;4031;49.758;6.120;2023-06-14T00:19:57;11.60;99.90
7972;DHT22;4031;49.758;6.120;2023-06-14T00:22:24;11.60;99.90
7972;DHT22;4031;49.758;6.120;2023-06-14T00:24:54;11.50;99.90
7972;DHT22;4031;49.758;6.120;2023-06-14T00:27:20;11.40;99.90
7972;DHT22;4031;49.758;6.120;2023-06-14T00:29:45;11.40;99.90
7972;DHT22;4031;49.758;6.120;2023-06-14T00:32:11;11.30;99.90
7972;DHT22;4031;49.758;6.120;2023-06-14T00:34:37;11.30;99.90
7972;DHT22;4031;49.758;6.120;2023-06-14T00:37:03;11.20;99.90
7972;DHT22;4031;49.758;6.120;2023-06-14T00:39:28;11.10;99.90
7972;DHT22;4031;49.758;6.120;2023-06-14T00:41:54;11.00;99.90
7972;DHT22;4031;49.758;6.120;2023-06-14T00:44:20;11.00;99.90
7972;DHT22;4031;49.758;6.120;2023-06-14T00:46:47;11.00;99.90
7972;DHT22;4031;49.758;6.120;2023-06-14T00:49:14;10.90;99.90
7972;DHT22;4031;49.758;6.120;2023-06-14T00:51:42;10.90;99.90
7972;DHT22;4031;49.758;6.120;2023-06-14T00:54:08;10.90;99.90
7972;DHT22;4031;49.758;6.120;2023-06-14T00:56:36;10.90;99.90
7972;DHT22;4031;49.758;6.120;2023-06-14T00:59:03;10.80;99.90
7972;DHT22;4031;49.758;6.120;2023-06-14T01:01:30;10.80;99.90
7972;DHT22;4031;49.758;6.120;2023-06-14T01:03:58;10.80;99.90
7972;DHT22;4031;49.758;6.120;2023-06-14T01:12:04;10.70;99.90
7972;DHT22;4031;49.758;6.120;2023-06-14T01:14:34;10.60;99.90
7972;DHT22;4031;49.758;6.120;2023-06-14T01:17:02;10.60;99.90
7972;DHT22;4031;49.758;6.120;2023-06-14T01:19:28;10.50;99.90
7972;DHT22;4031;49.758;6.120;2023-06-14T01:21:57;10.50;99.90
7972;DHT22;4031;49.758;6.120;2023-06-14T01:24:26;10.40;99.90
7972;DHT22;4031;49.758;6.120;2023-06-14T01:26:57;10.40;99.90
7972;DHT22;4031;49.758;6.120;2023-06-14T01:29:26;10.40;99.90
7972;DHT22;4031;49.758;6.120;2023-06-14T01:31:53;10.30;99.90
7972;DHT22;4031;49.758;6.120;2023-06-14T01:34:19;10.30;99.90
7972;DHT22;4031;49.758;6.120;2023-06-14T01:36:46;10.30;99.90
7972;DHT22;4031;49.758;6.120;2023-06-14T01:39:14;10.20;99.90
7972;DHT22;4031;49.758;6.120;2023-06-14T01:41:44;10.20;99.90
7972;DHT22;4031;49.758;6.120;2023-06-14T01:44:12;10.10;99.90
7972;DHT22;4031;49.758;6.120;2023-06-14T01:46:40;10.10;99.90
7972;DHT22;4031;49.758;6.120;2023-06-14T01:49:07;10.10;99.90
7972;DHT22;4031;49.758;6.120;2023-06-14T01:51:33;10.10;99.90
7972;DHT22;4031;49.758;6.120;2023-06-14T01:53:59;10.00;99.90
7972;DHT22;4031;49.758;6.120;2023-06-14T01:56:26;10.00;99.90
7972;DHT22;4031;49.758;6.120;2023-06-14T01:58:52;10.00;99.90
7972;DHT22;4031;49.758;6.120;2023-06-14T02:01:19;10.00;99.90
7972;DHT22;4031;49.758;6.120;2023-06-14T02:03:47;9.90;99.90
7972;DHT22;4031;49.758;6.120;2023-06-14T02:06:14;9.90;99.90
7972;DHT22;4031;49.758;6.120;2023-06-14T02:08:41;9.90;99.90
7972;DHT22;4031;49.758;6.120;2023-06-14T02:11:08;9.90;99.90
7972;DHT22;4031;49.758;6.120;2023-06-14T02:13:33;9.90;99.90
7972;DHT22;4031;49.758;6.120;2023-06-14T02:16:00;9.80;99.90
7972;DHT22;4031;49.758;6.120;2023-06-14T02:18:26;9.80;99.90
7972;DHT22;4031;49.758;6.120;2023-06-14T02:20:52;9.70;99.90
7972;DHT22;4031;49.758;6.120;2023-06-14T02:23:18;9.70;99.90
7972;DHT22;4031;49.758;6.120;2023-06-14T02:25:44;9.70;99.90
7972;DHT22;4031;49.758;6.120;2023-06-14T02:28:11;9.60;99.90
7972;DHT22;4031;49.758;6.120;2023-06-14T02:30:37;9.60;99.90
7972;DHT22;4031;49.758;6.120;2023-06-14T02:33:04;9.60;99.90
7972;DHT22;4031;49.758;6.120;2023-06-14T02:35:30;9.60;99.90
7972;DHT22;4031;49.758;6.120;2023-06-14T02:37:56;9.50;99.90
7972;DHT22;4031;49.758;6.120;2023-06-14T02:40:22;9.50;99.90
7972;DHT22;4031;49.758;6.120;2023-06-14T02:42:47;9.60;99.90
7972;DHT22;4031;49.758;6.120;2023-06-14T02:45:13;9.50;99.90
7972;DHT22;4031;49.758;6.120;2023-06-14T02:47:40;9.40;99.90
7972;DHT22;4031;49.758;6.120;2023-06-14T02:50:06;9.30;99.90
7972;DHT22;4031;49.758;6.120;2023-06-14T02:52:33;9.30;99.90
7972;DHT22;4031;49.758;6.120;2023-06-14T02:54:59;9.30;99.90
7972;DHT22;4031;49.758;6.120;2023-06-14T02:57:25;9.30;99.90
7972;DHT22;4031;49.758;6.120;2023-06-14T02:59:50;9.30;99.90
7972;DHT22;4031;49.758;6.120;2023-06-14T03:02:17;9.40;99.90
7972;DHT22;4031;49.758;6.120;2023-06-14T03:04:43;9.30;99.90
7972;DHT22;4031;49.758;6.120;2023-06-14T03:07:10;9.30;99.90
7972;DHT22;4031;49.758;6.120;2023-06-14T03:09:36;9.30;99.90
7972;DHT22;4031;49.758;6.120;2023-06-14T03:12:03;9.30;99.90
7972;DHT22;4031;49.758;6.120;2023-06-14T03:14:32;9.30;99.90
7972;DHT22;4031;49.758;6.120;2023-06-14T03:16:58;9.20;99.90
7972;DHT22;4031;49.758;6.120;2023-06-14T03:19:24;9.20;99.90
7972;DHT22;4031;49.758;6.120;2023-06-14T03:21:51;9.20;99.90
7972;DHT22;4031;49.758;6.120;2023-06-14T03:24:17;9.20;99.90
7972;DHT22;4031;49.758;6.120;2023-06-14T03:26:43;9.10;99.90
7972;DHT22;4031;49.758;6.120;2023-06-14T03:29:08;9.10;99.90
7972;DHT22;4031;49.758;6.120;2023-06-14T03:31:34;9.10;99.90
7972;DHT22;4031;49.758;6.120;2023-06-14T03:34:01;9.10;99.90
7972;DHT22;4031;49.758;6.120;2023-06-14T03:36:27;9.10;99.90
7972;DHT22;4031;49.758;6.120;2023-06-14T03:38:55;9.10;99.90
7972;DHT22;4031;49.758;6.120;2023-06-14T03:41:21;9.10;99.90
7972;DHT22;4031;49.758;6.120;2023-06-14T03:43:46;9.10;99.90
7972;DHT22;4031;49.758;6.120;2023-06-14T03:46:12;9.20;99.90
7972;DHT22;4031;49.758;6.120;2023-06-14T03:48:38;9.10;99.90
7972;DHT22;4031;49.758;6.120;2023-06-14T03:51:04;9.20;99.90
7972;DHT22;4031;49.758;6.120;2023-06-14T03:53:30;9.20;99.90
7972;DHT22;4031;49.758;6.120;2023-06-14T03:55:56;9.20;99.90
7972;DHT22;4031;49.758;6.120;2023-06-14T03:58:22;9.20;99.90
7972;DHT22;4031;49.758;6.120;2023-06-14T04:00:48;9.30;99.90
7972;DHT22;4031;49.758;6.120;2023-06-14T04:03:14;9.20;99.90
7972;DHT22;4031;49.758;6.120;2023-06-14T04:05:41;9.40;99.90
7972;DHT22;4031;49.758;6.120;2023-06-14T04:08:14;9.50;99.90
7972;DHT22;4031;49.758;6.120;2023-06-14T04:10:41;9.50;99.90
7972;DHT22;4031;49.758;6.120;2023-06-14T04:13:07;9.60;99.90
7972;DHT22;4031;49.758;6.120;2023-06-14T04:15:32;9.70;99.90
7972;DHT22;4031;49.758;6.120;2023-06-14T04:17:58;9.70;99.90
7972;DHT22;4031;49.758;6.120;2023-06-14T04:20:25;9.70;99.90
7972;DHT22;4031;49.758;6.120;2023-06-14T04:22:52;9.80;99.90
7972;DHT22;4031;49.758;6.120;2023-06-14T04:25:22;9.80;99.90
7972;DHT22;4031;49.758;6.120;2023-06-14T04:27:48;9.80;99.90
7972;DHT22;4031;49.758;6.120;2023-06-14T04:30:15;9.90;99.90
7972;DHT22;4031;49.758;6.120;2023-06-14T04:32:42;9.90;99.90
7972;DHT22;4031;49.758;6.120;2023-06-14T04:35:08;10.00;99.90
7972;DHT22;4031;49.758;6.120;2023-06-14T04:37:34;10.10;99.90
7972;DHT22;4031;49.758;6.120;2023-06-14T04:40:00;10.10;99.90
7972;DHT22;4031;49.758;6.120;2023-06-14T04:42:26;10.20;99.90
7972;DHT22;4031;49.758;6.120;2023-06-14T04:44:56;10.30;99.90
7972;DHT22;4031;49.758;6.120;2023-06-14T04:47:22;10.40;99.90
7972;DHT22;4031;49.758;6.120;2023-06-14T04:49:50;10.50;99.90
7972;DHT22;4031;49.758;6.120;2023-06-14T04:52:19;10.60;99.90
7972;DHT22;4031;49.758;6.120;2023-06-14T04:54:46;10.70;99.90
7972;DHT22;4031;49.758;6.120;2023-06-14T04:57:12;10.80;99.90
7972;DHT22;4031;49.758;6.120;2023-06-14T04:59:40;10.90;99.90
7972;DHT22;4031;49.758;6.120;2023-06-14T05:02:06;11.00;99.90
7972;DHT22;4031;49.758;6.120;2023-06-14T05:04:32;11.00;99.90
7972;DHT22;4031;49.758;6.120;2023-06-14T05:06:59;11.20;99.90
7972;DHT22;4031;49.758;6.120;2023-06-14T05:09:26;11.20;99.90
7972;DHT22;4031;49.758;6.120;2023-06-14T05:11:53;11.40;99.90
7972;DHT22;4031;49.758;6.120;2023-06-14T05:14:18;11.40;99.90
7972;DHT22;4031;49.758;6.120;2023-06-14T05:16:45;11.50;99.90
7972;DHT22;4031;49.758;6.120;2023-06-14T05:19:11;11.70;99.90
7972;DHT22;4031;49.758;6.120;2023-06-14T05:21:37;11.70;99.90
7972;DHT22;4031;49.758;6.120;2023-06-14T05:24:03;11.80;99.90
7972;DHT22;4031;49.758;6.120;2023-06-14T05:26:29;11.90;99.90
7972;DHT22;4031;49.758;6.120;2023-06-14T05:28:58;12.10;99.90
7972;DHT22;4031;49.758;6.120;2023-06-14T05:31:25;12.20;99.90
7972;DHT22;4031;49.758;6.120;2023-06-14T05:33:52;12.30;99.90
7972;DHT22;4031;49.758;6.120;2023-06-14T05:36:19;12.40;99.90
7972;DHT22;4031;49.758;6.120;2023-06-14T05:38:46;12.60;99.90
7972;DHT22;4031;49.758;6.120;2023-06-14T05:41:12;12.70;99.90
7972;DHT22;4031;49.758;6.120;2023-06-14T05:43:38;12.90;99.90
7972;DHT22;4031;49.758;6.120;2023-06-14T05:46:04;13.00;99.90
7972;DHT22;4031;49.758;6.120;2023-06-14T05:48:32;13.20;99.90
7972;DHT22;4031;49.758;6.120;2023-06-14T05:50:58;13.30;99.90
7972;DHT22;4031;49.758;6.120;2023-06-14T05:53:24;13.50;99.90
7972;DHT22;4031;49.758;6.120;2023-06-14T05:55:51;13.80;99.90
7972;DHT22;4031;49.758;6.120;2023-06-14T05:58:20;14.10;99.90
7972;DHT22;4031;49.758;6.120;2023-06-14T06:00:47;14.50;99.90
7972;DHT22;4031;49.758;6.120;2023-06-14T06:03:12;14.90;99.90
7972;DHT22;4031;49.758;6.120;2023-06-14T06:05:39;15.30;99.90
7972;DHT22;4031;49.758;6.120;2023-06-14T06:08:05;15.80;99.90
7972;DHT22;4031;49.758;6.120;2023-06-14T06:10:31;16.20;99.90
7972;DHT22;4031;49.758;6.120;2023-06-14T06:12:56;16.70;99.90
7972;DHT22;4031;49.758;6.120;2023-06-14T06:15:22;17.20;99.90
7972;DHT22;4031;49.758;6.120;2023-06-14T06:17:48;17.70;99.90
7972;DHT22;4031;49.758;6.120;2023-06-14T06:20:13;18.20;99.90
7972;DHT22;4031;49.758;6.120;2023-06-14T06:22:39;19.00;99.90
7972;DHT22;4031;49.758;6.120;2023-06-14T06:25:05;20.10;99.90
7972;DHT22;4031;49.758;6.120;2023-06-14T06:27:32;21.20;99.90
7972;DHT22;4031;49.758;6.120;2023-06-14T06:29:58;22.40;99.90
7972;DHT22;4031;49.758;6.120;2023-06-14T06:32:23;23.70;99.90
7972;DHT22;4031;49.758;6.120;2023-06-14T06:34:50;24.80;99.90
7972;DHT22;4031;49.758;6.120;2023-06-14T06:37:15;26.20;99.90
7972;DHT22;4031;49.758;6.120;2023-06-14T06:39:41;27.30;99.90
7972;DHT22;4031;49.758;6.120;2023-06-14T06:42:07;28.30;99.90
7972;DHT22;4031;49.758;6.120;2023-06-14T06:44:33;29.10;99.90
7972;DHT22;4031;49.758;6.120;2023-06-14T06:46:58;29.90;99.90
7972;DHT22;4031;49.758;6.120;2023-06-14T06:49:24;30.10;99.90
7972;DHT22;4031;49.758;6.120;2023-06-14T06:52:04;30.90;99.90
7972;DHT22;4031;49.758;6.120;2023-06-14T06:54:31;30.80;99.90
7972;DHT22;4031;49.758;6.120;2023-06-14T06:56:57;30.80;98.60
7972;DHT22;4031;49.758;6.120;2023-06-14T06:59:23;31.30;96.50
7972;DHT22;4031;49.758;6.120;2023-06-14T07:01:49;31.90;92.80
7972;DHT22;4031;49.758;6.120;2023-06-14T07:04:15;32.20;89.20
7972;DHT22;4031;49.758;6.120;2023-06-14T07:06:42;32.30;79.20
7972;DHT22;4031;49.758;6.120;2023-06-14T07:09:08;32.20;77.60
7972;DHT22;4031;49.758;6.120;2023-06-14T07:11:40;32.20;72.90
7972;DHT22;4031;49.758;6.120;2023-06-14T07:14:09;32.30;71.50
7972;DHT22;4031;49.758;6.120;2023-06-14T07:16:35;32.40;67.20
7972;DHT22;4031;49.758;6.120;2023-06-14T07:19:04;32.80;65.50
7972;DHT22;4031;49.758;6.120;2023-06-14T07:21:30;33.20;63.10
7972;DHT22;4031;49.758;6.120;2023-06-14T07:23:56;33.80;61.60
7972;DHT22;4031;49.758;6.120;2023-06-14T07:26:22;34.40;59.50
7972;DHT22;4031;49.758;6.120;2023-06-14T07:28:48;34.60;56.80
7972;DHT22;4031;49.758;6.120;2023-06-14T07:31:15;34.30;54.90
7972;DHT22;4031;49.758;6.120;2023-06-14T07:33:41;34.20;54.40
7972;DHT22;4031;49.758;6.120;2023-06-14T07:36:07;34.50;54.10
7972;DHT22;4031;49.758;6.120;2023-06-14T07:38:33;34.80;51.70
7972;DHT22;4031;49.758;6.120;2023-06-14T07:41:00;34.90;51.60
7972;DHT22;4031;49.758;6.120;2023-06-14T07:43:26;35.00;51.30
7972;DHT22;4031;49.758;6.120;2023-06-14T07:45:51;35.10;50.00
7972;DHT22;4031;49.758;6.120;2023-06-14T07:48:18;35.10;50.00
7972;DHT22;4031;49.758;6.120;2023-06-14T07:50:44;35.30;48.00
7972;DHT22;4031;49.758;6.120;2023-06-14T07:53:09;35.30;46.70
7972;DHT22;4031;49.758;6.120;2023-06-14T07:55:35;35.50;46.60
7972;DHT22;4031;49.758;6.120;2023-06-14T07:58:06;35.50;46.20
7972;DHT22;4031;49.758;6.120;2023-06-14T08:00:32;35.50;45.80
7972;DHT22;4031;49.758;6.120;2023-06-14T08:02:58;35.60;44.20
7972;DHT22;4031;49.758;6.120;2023-06-14T08:05:27;35.60;44.90
7972;DHT22;4031;49.758;6.120;2023-06-14T08:07:53;35.80;43.80
7972;DHT22;4031;49.758;6.120;2023-06-14T08:10:20;35.90;44.30
7972;DHT22;4031;49.758;6.120;2023-06-14T08:12:46;36.20;45.50
7972;DHT22;4031;49.758;6.120;2023-06-14T08:15:12;36.40;44.00
7972;DHT22;4031;49.758;6.120;2023-06-14T08:17:37;36.50;42.10
7972;DHT22;4031;49.758;6.120;2023-06-14T08:20:04;36.60;41.30
7972;DHT22;4031;49.758;6.120;2023-06-14T08:22:30;36.40;42.10
7972;DHT22;4031;49.758;6.120;2023-06-14T08:25:02;36.30;40.40
7972;DHT22;4031;49.758;6.120;2023-06-14T08:27:28;36.40;40.80
7972;DHT22;4031;49.758;6.120;2023-06-14T08:29:54;36.50;40.10
7972;DHT22;4031;49.758;6.120;2023-06-14T08:32:21;36.50;39.90
7972;DHT22;4031;49.758;6.120;2023-06-14T08:34:47;36.50;37.70
7972;DHT22;4031;49.758;6.120;2023-06-14T08:37:13;36.60;37.90
7972;DHT22;4031;49.758;6.120;2023-06-14T08:39:39;36.70;37.60
7972;DHT22;4031;49.758;6.120;2023-06-14T08:42:05;36.70;37.50
7972;DHT22;4031;49.758;6.120;2023-06-14T08:44:33;36.90;39.10
7972;DHT22;4031;49.758;6.120;2023-06-14T08:46:59;36.90;38.30
7972;DHT22;4031;49.758;6.120;2023-06-14T08:49:26;36.80;35.30
7972;DHT22;4031;49.758;6.120;2023-06-14T08:51:59;36.70;37.50
7972;DHT22;4031;49.758;6.120;2023-06-14T08:54:30;36.50;35.60
7972;DHT22;4031;49.758;6.120;2023-06-14T08:56:57;36.40;35.60
7972;DHT22;4031;49.758;6.120;2023-06-14T08:59:29;36.60;36.90
7972;DHT22;4031;49.758;6.120;2023-06-14T09:01:56;36.60;37.10
7972;DHT22;4031;49.758;6.120;2023-06-14T09:04:22;36.50;38.40
7972;DHT22;4031;49.758;6.120;2023-06-14T09:06:55;36.50;35.90
7972;DHT22;4031;49.758;6.120;2023-06-14T09:09:22;36.00;36.00
7972;DHT22;4031;49.758;6.120;2023-06-14T09:11:51;36.00;35.30
7972;DHT22;4031;49.758;6.120;2023-06-14T09:14:23;36.20;38.00
7972;DHT22;4031;49.758;6.120;2023-06-14T09:16:52;36.30;36.50
7972;DHT22;4031;49.758;6.120;2023-06-14T09:19:23;36.40;38.60
7972;DHT22;4031;49.758;6.120;2023-06-14T09:21:50;36.60;35.70
7972;DHT22;4031;49.758;6.120;2023-06-14T09:24:18;36.70;36.10
7972;DHT22;4031;49.758;6.120;2023-06-14T09:26:47;36.80;38.90
7972;DHT22;4031;49.758;6.120;2023-06-14T09:29:13;37.00;37.20
7972;DHT22;4031;49.758;6.120;2023-06-14T09:31:38;37.10;36.10
7972;DHT22;4031;49.758;6.120;2023-06-14T09:34:05;37.20;36.00
7972;DHT22;4031;49.758;6.120;2023-06-14T09:36:32;37.10;35.00
7972;DHT22;4031;49.758;6.120;2023-06-14T09:38:59;36.80;35.90
7972;DHT22;4031;49.758;6.120;2023-06-14T09:41:34;36.90;37.50
7972;DHT22;4031;49.758;6.120;2023-06-14T09:44:00;36.90;35.10
7972;DHT22;4031;49.758;6.120;2023-06-14T09:46:28;36.60;38.70
7972;DHT22;4031;49.758;6.120;2023-06-14T09:48:57;36.10;35.60
7972;DHT22;4031;49.758;6.120;2023-06-14T09:51:23;35.30;38.40
7972;DHT22;4031;49.758;6.120;2023-06-14T09:53:50;35.10;36.60
7972;DHT22;4031;49.758;6.120;2023-06-14T09:56:23;34.80;36.50
7972;DHT22;4031;49.758;6.120;2023-06-14T09:58:55;34.10;35.90
7972;DHT22;4031;49.758;6.120;2023-06-14T10:01:26;33.70;37.60
7972;DHT22;4031;49.758;6.120;2023-06-14T10:04:03;33.10;38.10
7972;DHT22;4031;49.758;6.120;2023-06-14T10:06:31;32.80;37.90
7972;DHT22;4031;49.758;6.120;2023-06-14T10:08:59;32.80;38.90
7972;DHT22;4031;49.758;6.120;2023-06-14T10:11:28;32.50;38.40
7972;DHT22;4031;49.758;6.120;2023-06-14T10:13:58;32.20;39.60
7972;DHT22;4031;49.758;6.120;2023-06-14T10:20:13;32.90;38.70
7972;DHT22;4031;49.758;6.120;2023-06-14T10:22:36;32.90;40.10
7972;DHT22;4031;49.758;6.120;2023-06-14T10:25:07;33.10;38.30
7972;DHT22;4031;49.758;6.120;2023-06-14T10:27:37;33.20;38.90
7972;DHT22;4031;49.758;6.120;2023-06-14T10:30:05;33.10;38.40
7972;DHT22;4031;49.758;6.120;2023-06-14T10:32:33;33.00;39.60
7972;DHT22;4031;49.758;6.120;2023-06-14T10:35:06;32.60;38.60
7972;DHT22;4031;49.758;6.120;2023-06-14T10:37:32;32.30;38.20
7972;DHT22;4031;49.758;6.120;2023-06-14T10:39:58;32.20;38.80
7972;DHT22;4031;49.758;6.120;2023-06-14T10:42:29;32.50;38.70
7972;DHT22;4031;49.758;6.120;2023-06-14T10:44:58;32.80;42.00
7972;DHT22;4031;49.758;6.120;2023-06-14T10:47:31;33.10;39.20
7972;DHT22;4031;49.758;6.120;2023-06-14T10:50:27;33.10;38.90
7972;DHT22;4031;49.758;6.120;2023-06-14T10:52:53;33.40;40.00
7972;DHT22;4031;49.758;6.120;2023-06-14T10:55:22;33.20;38.60
7972;DHT22;4031;49.758;6.120;2023-06-14T10:57:56;33.10;39.00
7972;DHT22;4031;49.758;6.120;2023-06-14T11:00:26;32.90;40.80
7972;DHT22;4031;49.758;6.120;2023-06-14T11:05:57;31.80;40.20
7972;DHT22;4031;49.758;6.120;2023-06-14T11:11:18;32.60;39.70
7972;DHT22;4031;49.758;6.120;2023-06-14T11:13:48;32.90;38.00
7972;DHT22;4031;49.758;6.120;2023-06-14T11:16:15;32.90;40.40
7972;DHT22;4031;49.758;6.120;2023-06-14T11:18:44;32.90;40.20
7972;DHT22;4031;49.758;6.120;2023-06-14T11:21:10;32.70;41.20
7972;DHT22;4031;49.758;6.120;2023-06-14T11:23:36;32.80;39.70
7972;DHT22;4031;49.758;6.120;2023-06-14T11:26:03;32.80;40.90
7972;DHT22;4031;49.758;6.120;2023-06-14T11:28:40;32.60;40.00
7972;DHT22;4031;49.758;6.120;2023-06-14T11:31:06;33.10;39.90
7972;DHT22;4031;49.758;6.120;2023-06-14T11:33:34;33.20;39.00
7972;DHT22;4031;49.758;6.120;2023-06-14T11:36:02;33.00;39.00
7972;DHT22;4031;49.758;6.120;2023-06-14T11:38:30;33.10;39.20
7972;DHT22;4031;49.758;6.120;2023-06-14T11:40:59;32.90;41.10
7972;DHT22;4031;49.758;6.120;2023-06-14T11:43:25;32.90;39.80
7972;DHT22;4031;49.758;6.120;2023-06-14T11:45:52;33.00;39.80
7972;DHT22;4031;49.758;6.120;2023-06-14T11:48:18;33.20;41.50
7972;DHT22;4031;49.758;6.120;2023-06-14T11:50:44;32.90;40.50
7972;DHT22;4031;49.758;6.120;2023-06-14T11:53:10;33.00;39.60
7972;DHT22;4031;49.758;6.120;2023-06-14T11:55:39;33.10;40.00
7972;DHT22;4031;49.758;6.120;2023-06-14T11:58:06;33.10;39.50
7972;DHT22;4031;49.758;6.120;2023-06-14T12:00:32;32.60;39.90
7972;DHT22;4031;49.758;6.120;2023-06-14T12:02:58;32.50;40.40
7972;DHT22;4031;49.758;6.120;2023-06-14T12:05:24;32.80;40.20
7972;DHT22;4031;49.758;6.120;2023-06-14T12:08:00;32.00;40.20
7972;DHT22;4031;49.758;6.120;2023-06-14T12:10:29;31.20;42.10
7972;DHT22;4031;49.758;6.120;2023-06-14T12:12:58;31.00;40.80
7972;DHT22;4031;49.758;6.120;2023-06-14T12:15:27;31.40;43.10
7972;DHT22;4031;49.758;6.120;2023-06-14T12:17:54;31.60;41.60
7972;DHT22;4031;49.758;6.120;2023-06-14T12:20:19;31.70;41.50
7972;DHT22;4031;49.758;6.120;2023-06-14T12:22:58;32.10;43.00
7972;DHT22;4031;49.758;6.120;2023-06-14T12:25:35;32.20;42.10
7972;DHT22;4031;49.758;6.120;2023-06-14T12:28:09;32.60;42.70
7972;DHT22;4031;49.758;6.120;2023-06-14T12:30:36;32.70;41.40
7972;DHT22;4031;49.758;6.120;2023-06-14T12:33:03;32.50;41.70
7972;DHT22;4031;49.758;6.120;2023-06-14T12:35:29;32.70;41.20
7972;DHT22;4031;49.758;6.120;2023-06-14T12:37:55;32.80;40.60
7972;DHT22;4031;49.758;6.120;2023-06-14T12:40:21;32.10;40.50
7972;DHT22;4031;49.758;6.120;2023-06-14T12:42:47;32.10;41.60
7972;DHT22;4031;49.758;6.120;2023-06-14T12:45:13;32.20;41.40
7972;DHT22;4031;49.758;6.120;2023-06-14T12:47:39;32.40;40.10
7972;DHT22;4031;49.758;6.120;2023-06-14T12:50:05;32.40;41.60
7972;DHT22;4031;49.758;6.120;2023-06-14T12:52:32;32.50;40.80
7972;DHT22;4031;49.758;6.120;2023-06-14T12:55:04;32.80;40.70
7972;DHT22;4031;49.758;6.120;2023-06-14T12:57:30;32.70;40.20
7972;DHT22;4031;49.758;6.120;2023-06-14T12:59:56;32.70;40.80
7972;DHT22;4031;49.758;6.120;2023-06-14T13:02:22;33.00;42.00
7972;DHT22;4031;49.758;6.120;2023-06-14T13:04:49;33.10;40.60
7972;DHT22;4031;49.758;6.120;2023-06-14T13:07:15;32.90;39.00
7972;DHT22;4031;49.758;6.120;2023-06-14T13:09:42;32.70;41.70
7972;DHT22;4031;49.758;6.120;2023-06-14T13:12:10;32.80;40.90
7972;DHT22;4031;49.758;6.120;2023-06-14T13:14:39;33.00;38.60
7972;DHT22;4031;49.758;6.120;2023-06-14T13:17:09;33.30;40.70
7972;DHT22;4031;49.758;6.120;2023-06-14T13:19:35;33.50;38.70
7972;DHT22;4031;49.758;6.120;2023-06-14T13:22:01;33.70;38.40
7972;DHT22;4031;49.758;6.120;2023-06-14T13:24:27;33.70;40.40
7972;DHT22;4031;49.758;6.120;2023-06-14T13:26:55;33.60;38.40
7972;DHT22;4031;49.758;6.120;2023-06-14T13:29:21;33.60;38.80
7972;DHT22;4031;49.758;6.120;2023-06-14T13:31:47;33.40;39.30
7972;DHT22;4031;49.758;6.120;2023-06-14T13:34:12;33.50;38.60
7972;DHT22;4031;49.758;6.120;2023-06-14T13:36:39;33.30;38.00
7972;DHT22;4031;49.758;6.120;2023-06-14T13:39:04;33.20;39.20
7972;DHT22;4031;49.758;6.120;2023-06-14T13:41:31;33.50;38.30
7972;DHT22;4031;49.758;6.120;2023-06-14T13:44:00;33.50;39.20
7972;DHT22;4031;49.758;6.120;2023-06-14T13:46:26;33.70;39.60
7972;DHT22;4031;49.758;6.120;2023-06-14T13:48:52;33.70;39.60
7972;DHT22;4031;49.758;6.120;2023-06-14T13:51:18;33.30;38.30
7972;DHT22;4031;49.758;6.120;2023-06-14T13:53:50;32.70;38.40
7972;DHT22;4031;49.758;6.120;2023-06-14T13:56:16;32.60;38.60
7972;DHT22;4031;49.758;6.120;2023-06-14T13:58:44;32.90;39.80
7972;DHT22;4031;49.758;6.120;2023-06-14T14:01:10;33.10;40.60
7972;DHT22;4031;49.758;6.120;2023-06-14T14:03:37;33.30;38.80
7972;DHT22;4031;49.758;6.120;2023-06-14T14:06:03;33.40;39.20
7972;DHT22;4031;49.758;6.120;2023-06-14T14:08:30;32.90;38.10
7972;DHT22;4031;49.758;6.120;2023-06-14T14:10:56;33.00;39.30
7972;DHT22;4031;49.758;6.120;2023-06-14T14:13:22;32.90;38.90
7972;DHT22;4031;49.758;6.120;2023-06-14T14:15:48;31.80;39.30
7972;DHT22;4031;49.758;6.120;2023-06-14T14:18:16;30.90;41.10
7972;DHT22;4031;49.758;6.120;2023-06-14T14:20:42;30.60;39.60
7972;DHT22;4031;49.758;6.120;2023-06-14T14:23:08;30.80;39.90
7972;DHT22;4031;49.758;6.120;2023-06-14T14:25:34;31.10;39.00
7972;DHT22;4031;49.758;6.120;2023-06-14T14:28:00;31.60;39.30
7972;DHT22;4031;49.758;6.120;2023-06-14T14:30:26;31.80;40.60
7972;DHT22;4031;49.758;6.120;2023-06-14T14:32:52;31.80;38.70
7972;DHT22;4031;49.758;6.120;2023-06-14T14:35:18;31.40;39.70
7972;DHT22;4031;49.758;6.120;2023-06-14T14:37:44;31.10;39.20
7972;DHT22;4031;49.758;6.120;2023-06-14T14:40:11;30.90;38.80
7972;DHT22;4031;49.758;6.120;2023-06-14T14:42:37;30.80;42.20
7972;DHT22;4031;49.758;6.120;2023-06-14T14:45:03;31.10;40.90
7972;DHT22;4031;49.758;6.120;2023-06-14T14:47:29;31.20;42.60
7972;DHT22;4031;49.758;6.120;2023-06-14T14:49:55;31.50;39.60
7972;DHT22;4031;49.758;6.120;2023-06-14T14:52:20;31.50;39.80
7972;DHT22;4031;49.758;6.120;2023-06-14T14:54:46;31.60;40.30
7972;DHT22;4031;49.758;6.120;2023-06-14T14:57:12;31.70;40.80
7972;DHT22;4031;49.758;6.120;2023-06-14T14:59:37;31.60;40.40
7972;DHT22;4031;49.758;6.120;2023-06-14T15:02:03;31.20;40.30
7972;DHT22;4031;49.758;6.120;2023-06-14T15:04:29;31.10;40.90
7972;DHT22;4031;49.758;6.120;2023-06-14T15:06:55;31.10;41.00
7972;DHT22;4031;49.758;6.120;2023-06-14T15:09:21;31.20;40.60
7972;DHT22;4031;49.758;6.120;2023-06-14T15:11:46;31.10;41.10
7972;DHT22;4031;49.758;6.120;2023-06-14T15:14:12;31.00;39.60
7972;DHT22;4031;49.758;6.120;2023-06-14T15:16:38;31.00;39.90
7972;DHT22;4031;49.758;6.120;2023-06-14T15:19:04;31.00;40.60
7972;DHT22;4031;49.758;6.120;2023-06-14T15:21:29;31.10;41.20
7972;DHT22;4031;49.758;6.120;2023-06-14T15:23:55;30.90;38.90
7972;DHT22;4031;49.758;6.120;2023-06-14T15:26:21;30.90;41.40
7972;DHT22;4031;49.758;6.120;2023-06-14T15:28:49;30.90;41.90
7972;DHT22;4031;49.758;6.120;2023-06-14T15:31:14;30.90;40.70
7972;DHT22;4031;49.758;6.120;2023-06-14T15:33:40;31.00;40.30
7972;DHT22;4031;49.758;6.120;2023-06-14T15:36:06;30.90;41.30
7972;DHT22;4031;49.758;6.120;2023-06-14T15:38:34;31.10;38.80
7972;DHT22;4031;49.758;6.120;2023-06-14T15:41:01;31.10;39.80
7972;DHT22;4031;49.758;6.120;2023-06-14T15:43:26;31.10;38.60
7972;DHT22;4031;49.758;6.120;2023-06-14T15:45:52;31.10;40.00
7972;DHT22;4031;49.758;6.120;2023-06-14T15:48:18;31.30;39.70
7972;DHT22;4031;49.758;6.120;2023-06-14T15:50:44;31.30;37.30
7972;DHT22;4031;49.758;6.120;2023-06-14T15:53:10;31.40;38.10
7972;DHT22;4031;49.758;6.120;2023-06-14T15:55:36;31.60;38.20
7972;DHT22;4031;49.758;6.120;2023-06-14T15:58:02;31.50;37.70
7972;DHT22;4031;49.758;6.120;2023-06-14T16:00:28;31.40;37.60
7972;DHT22;4031;49.758;6.120;2023-06-14T16:02:53;31.30;38.40
7972;DHT22;4031;49.758;6.120;2023-06-14T16:05:19;31.40;39.60
7972;DHT22;4031;49.758;6.120;2023-06-14T16:07:45;31.60;38.80
7972;DHT22;4031;49.758;6.120;2023-06-14T16:10:11;31.80;38.60
7972;DHT22;4031;49.758;6.120;2023-06-14T16:12:36;32.00;38.30
7972;DHT22;4031;49.758;6.120;2023-06-14T16:15:02;31.90;37.20
7972;DHT22;4031;49.758;6.120;2023-06-14T16:17:28;32.00;36.80